createdAt,value
2018-09-20T00:00:48.804Z,19.95
2018-09-20T00:02:16.416Z,19.96
2018-09-20T00:03:44.785Z,19.95
2018-09-20T00:05:11.566Z,19.94
2018-09-20T00:06:37.943Z,19.91
2018-09-20T00:08:06.467Z,19.91
2018-09-20T00:09:33.779Z,19.92
2018-09-20T00:10:59.491Z,19.94
2018-09-20T00:12:26.794Z,19.96
2018-09-20T00:13:54.327Z,19.98
2018-09-20T00:15:21.364Z,19.99
2018-09-20T00:16:47.734Z,20.01
2018-09-20T00:18:14.414Z,20.02
2018-09-20T00:19:40.795Z,20.03
2018-09-20T00:21:07.502Z,20.02
2018-09-20T00:22:34.725Z,20.03
2018-09-20T00:24:02.444Z,20.02
2018-09-20T00:25:29.806Z,19.99
2018-09-20T00:26:58.491Z,19.97
2018-09-20T00:28:24.913Z,19.98
2018-09-20T00:29:52.268Z,19.99
2018-09-20T00:31:20.014Z,20.00
2018-09-20T00:34:14.864Z,20.02
2018-09-20T00:35:43.436Z,20.03
2018-09-20T00:37:09.449Z,20.03
2018-09-20T00:38:37.332Z,20.03
2018-09-20T00:40:03.927Z,20.04
2018-09-20T00:41:31.211Z,20.06
2018-09-20T00:42:58.870Z,20.09
2018-09-20T00:44:25.379Z,20.12
2018-09-20T00:45:52.727Z,20.13
2018-09-20T00:47:19.911Z,20.14
2018-09-20T00:48:48.299Z,20.14
2018-09-20T00:50:14.546Z,20.15
2018-09-20T00:51:42.001Z,20.15
2018-09-20T00:53:10.221Z,20.15
2018-09-20T00:54:36.844Z,20.15
2018-09-20T00:56:04.403Z,20.14
2018-09-20T00:57:31.902Z,20.14
2018-09-20T00:58:59.448Z,20.12
2018-09-20T01:00:27.000Z,20.11
2018-09-20T01:01:54.283Z,20.09
2018-09-20T01:03:21.943Z,20.07
2018-09-20T01:04:49.343Z,20.05
2018-09-20T01:06:16.887Z,20.03
2018-09-20T01:07:44.405Z,20.01
2018-09-20T01:09:11.946Z,19.98
2018-09-20T01:10:40.170Z,19.96
2018-09-20T01:12:06.012Z,19.94
2018-09-20T01:13:33.515Z,19.93
2018-09-20T01:15:01.347Z,19.91
2018-09-20T01:16:27.720Z,19.90
2018-09-20T01:17:55.242Z,19.88
2018-09-20T01:19:22.716Z,19.86
2018-09-20T01:20:48.450Z,19.84
2018-09-20T01:22:16.892Z,19.82
2018-09-20T01:23:43.738Z,19.81
2018-09-20T01:25:09.778Z,19.79
2018-09-20T01:26:38.073Z,19.78
2018-09-20T01:28:03.525Z,19.77
2018-09-20T01:29:31.231Z,19.75
2018-09-20T01:30:57.597Z,19.73
2018-09-20T01:32:24.977Z,19.70
2018-09-20T01:33:51.565Z,19.69
2018-09-20T01:35:19.008Z,19.65
2018-09-20T01:36:47.027Z,19.63
2018-09-20T01:38:13.395Z,19.60
2018-09-20T01:39:40.942Z,19.57
2018-09-20T01:41:08.306Z,19.55
2018-09-20T01:42:35.359Z,19.55
2018-09-20T01:44:02.883Z,19.53
2018-09-20T01:45:29.661Z,19.53
2018-09-20T01:46:57.167Z,19.52
2018-09-20T01:48:24.486Z,19.52
2018-09-20T01:49:51.263Z,19.51
2018-09-20T01:51:18.739Z,19.50
2018-09-20T01:52:46.175Z,19.49
2018-09-20T01:54:14.300Z,19.48
2018-09-20T01:55:41.722Z,19.46
2018-09-20T01:57:08.043Z,19.45
2018-09-20T01:58:36.408Z,19.43
2018-09-20T02:00:03.241Z,19.42
2018-09-20T02:01:29.738Z,19.41
2018-09-20T02:02:57.083Z,19.41
2018-09-20T02:04:25.671Z,19.40
2018-09-20T02:05:53.221Z,19.39
2018-09-20T02:07:20.616Z,19.38
2018-09-20T02:08:48.169Z,19.37
2018-09-20T02:10:15.698Z,19.35
2018-09-20T02:11:42.929Z,19.35
2018-09-20T02:13:10.362Z,19.34
2018-09-20T02:14:37.527Z,19.34
2018-09-20T02:16:05.003Z,19.34
2018-09-20T02:17:32.411Z,19.31
2018-09-20T02:18:58.912Z,19.31
2018-09-20T02:20:27.421Z,19.32
2018-09-20T02:21:54.944Z,19.34
2018-09-20T02:23:20.903Z,19.35
2018-09-20T02:24:49.242Z,19.35
2018-09-20T02:26:16.102Z,19.36
2018-09-20T02:27:42.336Z,19.36
2018-09-20T02:29:10.165Z,19.35
2018-09-20T02:30:36.396Z,19.35
2018-09-20T02:32:03.933Z,19.33
2018-09-20T02:33:32.609Z,19.33
2018-09-20T02:34:58.934Z,19.33
2018-09-20T02:36:29.602Z,19.32
2018-09-20T02:37:55.012Z,19.32
2018-09-20T02:39:21.683Z,19.32
2018-09-20T02:40:48.089Z,19.32
2018-09-20T02:42:15.378Z,19.33
2018-09-20T02:43:42.495Z,19.33
2018-09-20T02:45:10.461Z,19.33
2018-09-20T02:46:36.474Z,19.33
2018-09-20T02:48:04.032Z,19.32
2018-09-20T02:49:31.547Z,19.32
2018-09-20T02:50:58.547Z,19.30
2018-09-20T02:52:26.029Z,19.28
2018-09-20T02:53:53.483Z,19.27
2018-09-20T02:55:19.904Z,19.27
2018-09-20T02:56:47.337Z,19.25
2018-09-20T02:58:14.561Z,19.22
2018-09-20T02:59:43.056Z,19.22
2018-09-20T03:01:08.622Z,19.21
2018-09-20T03:02:37.057Z,19.19
2018-09-20T03:04:03.420Z,19.18
2018-09-20T03:05:31.894Z,19.18
2018-09-20T03:06:58.361Z,19.18
2018-09-20T03:08:26.751Z,19.18
2018-09-20T03:09:54.076Z,19.18
2018-09-20T03:11:21.663Z,19.19
2018-09-20T03:12:48.199Z,19.19
2018-09-20T03:14:15.571Z,19.18
2018-09-20T03:15:42.589Z,19.17
2018-09-20T03:17:10.022Z,19.16
2018-09-20T03:18:38.564Z,19.15
2018-09-20T03:20:05.843Z,19.14
2018-09-20T03:21:33.304Z,19.12
2018-09-20T03:22:59.034Z,19.11
2018-09-20T03:24:27.449Z,19.09
2018-09-20T03:25:54.007Z,19.07
2018-09-20T03:27:21.479Z,19.05
2018-09-20T03:28:47.088Z,19.03
2018-09-20T03:30:15.456Z,19.01
2018-09-20T03:31:41.780Z,18.98
2018-09-20T03:33:09.095Z,18.94
2018-09-20T03:34:36.577Z,18.91
2018-09-20T03:36:04.514Z,18.90
2018-09-20T03:37:30.116Z,18.88
2018-09-20T03:38:57.642Z,18.85
2018-09-20T03:40:26.203Z,18.83
2018-09-20T03:41:53.672Z,18.80
2018-09-20T03:43:20.480Z,18.76
2018-09-20T03:44:46.774Z,18.75
2018-09-20T03:46:14.331Z,18.72
2018-09-20T03:47:40.674Z,18.69
2018-09-20T03:49:08.908Z,18.68
2018-09-20T03:50:36.331Z,18.66
2018-09-20T03:52:02.594Z,18.62
2018-09-20T03:53:30.181Z,18.60
2018-09-20T03:54:58.682Z,18.59
2018-09-20T03:56:25.003Z,18.58
2018-09-20T03:57:52.386Z,18.56
2018-09-20T03:59:20.950Z,18.55
2018-09-20T04:00:47.066Z,18.53
2018-09-20T04:02:14.076Z,18.52
2018-09-20T04:03:41.625Z,18.50
2018-09-20T04:05:09.999Z,18.48
2018-09-20T04:06:37.304Z,18.47
2018-09-20T04:08:03.701Z,18.47
2018-09-20T04:09:30.960Z,18.46
2018-09-20T04:10:58.503Z,18.45
2018-09-20T04:12:26.947Z,18.45
2018-09-20T04:13:54.369Z,18.43
2018-09-20T04:15:19.867Z,18.41
2018-09-20T04:16:48.380Z,18.41
2018-09-20T04:18:15.835Z,18.41
2018-09-20T04:19:43.340Z,18.41
2018-09-20T04:21:10.177Z,18.40
2018-09-20T04:22:36.467Z,18.39
2018-09-20T04:24:04.129Z,18.39
2018-09-20T04:25:32.043Z,18.40
2018-09-20T04:26:59.588Z,18.39
2018-09-20T04:28:26.107Z,18.38
2018-09-20T04:29:53.504Z,18.38
2018-09-20T04:31:21.990Z,18.38
2018-09-20T04:32:48.514Z,18.37
2018-09-20T04:34:15.826Z,18.36
2018-09-20T04:35:44.327Z,18.35
2018-09-20T04:37:11.725Z,18.34
2018-09-20T04:38:38.902Z,18.32
2018-09-20T04:40:06.136Z,18.31
2018-09-20T04:41:33.671Z,18.30
2018-09-20T04:43:01.203Z,18.29
2018-09-20T04:44:27.581Z,18.29
2018-09-20T04:45:56.233Z,18.28
2018-09-20T04:47:23.594Z,18.27
2018-09-20T04:48:51.119Z,18.27
2018-09-20T04:50:18.547Z,18.25
2018-09-20T04:51:44.832Z,18.24
2018-09-20T04:53:13.323Z,18.22
2018-09-20T04:54:39.525Z,18.21
2018-09-20T04:56:07.871Z,18.19
2018-09-20T04:57:34.580Z,18.17
2018-09-20T04:59:02.015Z,18.16
2018-09-20T05:00:27.605Z,18.16
2018-09-20T05:01:56.244Z,18.16
2018-09-20T05:03:22.994Z,18.15
2018-09-20T05:04:49.262Z,18.15
2018-09-20T05:06:17.272Z,18.14
2018-09-20T05:07:43.742Z,18.14
2018-09-20T05:09:11.007Z,18.14
2018-09-20T05:10:37.416Z,18.13
2018-09-20T05:12:06.014Z,18.12
2018-09-20T05:13:32.371Z,18.11
2018-09-20T05:14:59.880Z,18.09
2018-09-20T05:16:27.345Z,18.08
2018-09-20T05:17:55.115Z,18.09
2018-09-20T05:19:20.608Z,18.08
2018-09-20T05:20:48.044Z,18.08
2018-09-20T05:22:15.490Z,18.07
2018-09-20T05:23:41.925Z,18.08
2018-09-20T05:25:10.264Z,18.08
2018-09-20T05:26:36.497Z,18.09
2018-09-20T05:28:04.048Z,18.09
2018-09-20T05:29:32.636Z,18.09
2018-09-20T05:30:57.951Z,18.10
2018-09-20T05:32:26.513Z,18.10
2018-09-20T05:33:54.052Z,18.10
2018-09-20T05:35:19.709Z,18.10
2018-09-20T05:36:47.293Z,18.10
2018-09-20T05:38:15.633Z,18.10
2018-09-20T05:39:43.128Z,18.11
2018-09-20T05:41:08.899Z,18.12
2018-09-20T05:42:37.109Z,18.13
2018-09-20T05:44:03.724Z,18.15
2018-09-20T05:45:30.766Z,18.17
2018-09-20T05:46:58.248Z,18.18
2018-09-20T05:48:26.613Z,18.19
2018-09-20T05:49:54.085Z,18.22
2018-09-20T05:51:20.534Z,18.23
2018-09-20T05:54:16.505Z,18.28
2018-09-20T05:55:42.728Z,18.31
2018-09-20T05:57:09.440Z,18.34
2018-09-20T05:58:37.499Z,18.36
2018-09-20T06:00:03.771Z,18.38
2018-09-20T06:01:31.309Z,18.41
2018-09-20T06:02:59.789Z,18.44
2018-09-20T06:04:27.242Z,18.47
2018-09-20T06:05:54.891Z,18.50
2018-09-20T06:07:20.945Z,18.53
2018-09-20T06:08:47.242Z,18.56
2018-09-20T06:10:13.847Z,18.59
2018-09-20T06:11:41.314Z,18.62
2018-09-20T06:13:10.006Z,18.64
2018-09-20T06:14:35.931Z,18.67
2018-09-20T06:16:03.274Z,18.70
2018-09-20T06:17:33.979Z,18.73
2018-09-20T06:18:57.303Z,18.76
2018-09-20T06:20:27.181Z,18.81
2018-09-20T06:21:51.596Z,18.85
2018-09-20T06:23:18.721Z,18.88
2018-09-20T06:24:47.314Z,18.92
2018-09-20T06:26:13.933Z,18.96
2018-09-20T06:27:41.546Z,19.00
2018-09-20T06:29:07.930Z,19.04
2018-09-20T06:30:35.246Z,19.09
2018-09-20T06:32:03.658Z,19.15
2018-09-20T06:33:31.060Z,19.19
2018-09-20T06:34:57.670Z,19.21
2018-09-20T06:36:26.108Z,19.23
2018-09-20T06:37:53.671Z,19.26
2018-09-20T06:39:19.971Z,19.30
2018-09-20T06:40:48.570Z,19.33
2018-09-20T06:42:15.910Z,19.37
2018-09-20T06:43:42.910Z,19.41
2018-09-20T06:45:09.202Z,19.45
2018-09-20T06:46:37.576Z,19.47
2018-09-20T06:48:04.020Z,19.49
2018-09-20T06:49:32.453Z,19.51
2018-09-20T06:51:00.049Z,19.54
2018-09-20T06:52:25.731Z,19.54
2018-09-20T06:53:54.026Z,19.56
2018-09-20T06:55:20.626Z,19.59
2018-09-20T06:56:49.142Z,19.61
2018-09-20T06:58:16.119Z,19.64
2018-09-20T06:59:43.788Z,19.67
2018-09-20T07:01:10.203Z,19.70
2018-09-20T07:02:37.540Z,19.72
2018-09-20T07:04:05.988Z,19.73
2018-09-20T07:05:32.131Z,19.74
2018-09-20T07:07:00.721Z,19.75
2018-09-20T07:08:27.191Z,19.77
2018-09-20T07:09:55.623Z,19.79
2018-09-20T07:11:22.192Z,19.81
2018-09-20T07:12:50.769Z,19.83
2018-09-20T07:14:18.067Z,19.85
2018-09-20T07:15:44.584Z,19.88
2018-09-20T07:17:13.024Z,19.91
2018-09-20T07:18:39.421Z,19.93
2018-09-20T07:20:08.050Z,19.96
2018-09-20T07:21:34.454Z,19.98
2018-09-20T07:23:01.523Z,20.00
2018-09-20T07:24:30.018Z,20.03
2018-09-20T07:25:56.433Z,20.06
2018-09-20T07:27:23.959Z,20.08
2018-09-20T07:28:51.217Z,20.12
2018-09-20T07:30:19.810Z,20.15
2018-09-20T07:31:46.351Z,20.18
2018-09-20T07:33:13.809Z,20.21
2018-09-20T07:34:42.355Z,20.23
2018-09-20T07:36:08.535Z,20.27
2018-09-20T07:37:37.073Z,20.32
2018-09-20T07:39:04.637Z,20.34
2018-09-20T07:40:30.846Z,20.36
2018-09-20T07:41:58.011Z,20.38
2018-09-20T07:43:25.613Z,20.40
2018-09-20T07:44:53.111Z,20.43
2018-09-20T07:46:20.596Z,20.46
2018-09-20T07:47:47.588Z,20.49
2018-09-20T07:49:16.202Z,20.53
2018-09-20T07:50:43.599Z,20.56
2018-09-20T07:52:11.111Z,20.59
2018-09-20T07:53:37.097Z,20.64
2018-09-20T07:55:05.030Z,20.68
2018-09-20T07:56:30.973Z,20.71
2018-09-20T07:57:59.539Z,20.75
2018-09-20T07:59:26.062Z,20.78
2018-09-20T08:00:54.689Z,20.80
2018-09-20T08:02:22.207Z,20.82
2018-09-20T08:03:49.692Z,20.84
2018-09-20T08:05:16.232Z,20.87
2018-09-20T08:06:43.644Z,20.89
2018-09-20T08:08:11.026Z,20.91
2018-09-20T08:09:38.658Z,20.92
2018-09-20T08:11:07.051Z,20.93
2018-09-20T08:12:34.555Z,20.95
2018-09-20T08:13:59.995Z,20.97
2018-09-20T08:15:28.451Z,20.99
2018-09-20T08:16:54.916Z,21.01
2018-09-20T08:18:22.328Z,21.05
2018-09-20T08:19:51.101Z,21.07
2018-09-20T08:21:18.655Z,21.10
2018-09-20T08:22:45.169Z,21.13
2018-09-20T08:24:13.740Z,21.17
2018-09-20T08:25:40.263Z,21.18
2018-09-20T08:27:06.681Z,21.20
2018-09-20T08:28:34.215Z,21.22
2018-09-20T08:30:02.896Z,21.25
2018-09-20T08:31:29.573Z,21.26
2018-09-20T08:32:56.970Z,21.29
2018-09-20T08:34:24.032Z,21.31
2018-09-20T08:35:51.506Z,21.34
2018-09-20T08:37:19.030Z,21.36
2018-09-20T08:38:46.367Z,21.37
2018-09-20T08:40:13.209Z,21.41
2018-09-20T08:41:40.944Z,21.44
2018-09-20T08:43:09.089Z,21.46
2018-09-20T08:44:34.892Z,21.51
2018-09-20T08:46:01.840Z,21.54
2018-09-20T08:47:30.657Z,21.57
2018-09-20T08:48:56.779Z,21.61
2018-09-20T08:50:24.164Z,21.64
2018-09-20T08:51:51.698Z,21.68
2018-09-20T08:53:20.427Z,21.70
2018-09-20T08:54:46.868Z,21.73
2018-09-20T08:56:13.477Z,21.76
2018-09-20T08:57:41.277Z,21.80
2018-09-20T08:59:09.484Z,21.86
2018-09-20T09:00:35.511Z,21.90
2018-09-20T09:02:02.956Z,21.94
2018-09-20T09:03:29.861Z,21.97
2018-09-20T09:04:57.383Z,22.00
2018-09-20T09:06:25.005Z,22.05
2018-09-20T09:07:54.547Z,22.08
2018-09-20T09:09:21.249Z,22.11
2018-09-20T09:10:47.723Z,22.13
2018-09-20T09:12:15.458Z,22.16
2018-09-20T09:13:43.039Z,22.20
2018-09-20T09:15:11.534Z,22.25
2018-09-20T09:16:38.912Z,22.31
2018-09-20T09:18:05.731Z,22.36
2018-09-20T09:19:32.418Z,22.42
2018-09-20T09:20:59.031Z,22.47
2018-09-20T09:22:25.374Z,22.53
2018-09-20T09:23:54.121Z,22.57
2018-09-20T09:25:21.677Z,22.61
2018-09-20T09:26:47.543Z,22.66
2018-09-20T09:28:15.364Z,22.73
2018-09-20T09:29:42.983Z,22.79
2018-09-20T09:31:10.220Z,22.86
2018-09-20T09:32:37.588Z,22.92
2018-09-20T09:34:04.070Z,22.97
2018-09-20T09:35:31.556Z,23.01
2018-09-20T09:36:59.073Z,23.05
2018-09-20T09:38:27.256Z,23.11
2018-09-20T09:39:54.262Z,23.19
2018-09-20T09:41:21.646Z,23.24
2018-09-20T09:42:48.267Z,23.29
2018-09-20T09:44:15.113Z,23.31
2018-09-20T09:45:42.756Z,23.33
2018-09-20T09:47:11.415Z,23.38
2018-09-20T09:48:38.686Z,23.42
2018-09-20T09:50:05.230Z,23.48
2018-09-20T09:51:32.086Z,23.53
2018-09-20T09:52:59.771Z,23.60
2018-09-20T09:54:27.851Z,23.68
2018-09-20T09:55:55.305Z,23.76
2018-09-20T09:57:23.035Z,23.86
2018-09-20T09:58:49.104Z,23.95
2018-09-20T10:00:16.766Z,24.06
2018-09-20T10:01:44.237Z,24.12
2018-09-20T10:03:12.877Z,24.19
2018-09-20T10:04:39.250Z,24.23
2018-09-20T10:06:08.026Z,24.17
2018-09-20T10:07:34.047Z,24.16
2018-09-20T10:09:02.692Z,24.18
2018-09-20T10:10:29.343Z,24.25
2018-09-20T10:11:56.838Z,24.35
2018-09-20T10:13:25.695Z,24.46
2018-09-20T10:14:52.220Z,24.56
2018-09-20T10:16:19.256Z,24.60
2018-09-20T10:17:47.789Z,24.67
2018-09-20T10:19:14.314Z,24.73
2018-09-20T10:20:42.034Z,24.78
2018-09-20T10:22:09.625Z,24.80
2018-09-20T10:23:37.206Z,24.83
2018-09-20T10:25:04.472Z,24.82
2018-09-20T10:26:32.016Z,24.80
2018-09-20T10:27:59.770Z,24.79
2018-09-20T10:29:27.276Z,24.79
2018-09-20T10:30:55.912Z,24.86
2018-09-20T10:32:22.454Z,24.98
2018-09-20T10:33:49.254Z,25.09
2018-09-20T10:35:17.151Z,25.18
2018-09-20T10:36:44.707Z,25.26
2018-09-20T10:38:11.742Z,25.30
2018-09-20T10:39:38.405Z,25.33
2018-09-20T10:41:07.021Z,25.33
2018-09-20T10:42:34.645Z,25.29
2018-09-20T10:44:01.269Z,25.31
2018-09-20T10:45:27.955Z,25.35
2018-09-20T10:46:56.507Z,25.33
2018-09-20T10:48:23.029Z,25.31
2018-09-20T10:49:50.729Z,25.22
2018-09-20T10:51:17.312Z,25.16
2018-09-20T10:52:45.949Z,25.15
2018-09-20T10:54:13.489Z,25.13
2018-09-20T10:55:39.913Z,25.04
2018-09-20T10:57:07.481Z,24.94
2018-09-20T10:58:35.887Z,24.90
2018-09-20T11:00:02.412Z,24.84
2018-09-20T11:01:30.162Z,24.76
2018-09-20T11:02:57.635Z,24.79
2018-09-20T11:04:26.257Z,24.91
2018-09-20T11:05:53.754Z,25.05
2018-09-20T11:07:20.381Z,25.19
2018-09-20T11:08:47.110Z,25.34
2018-09-20T11:10:15.732Z,25.45
2018-09-20T11:11:42.023Z,25.55
2018-09-20T11:13:08.728Z,25.66
2018-09-20T11:14:36.033Z,25.79
2018-09-20T11:16:04.513Z,25.92
2018-09-20T11:17:31.013Z,26.05
2018-09-20T11:18:59.013Z,26.16
2018-09-20T11:20:26.682Z,26.27
2018-09-20T11:21:53.196Z,26.37
2018-09-20T11:23:21.029Z,26.50
2018-09-20T11:24:49.576Z,26.69
2018-09-20T11:26:15.782Z,26.91
2018-09-20T11:27:43.245Z,27.12
2018-09-20T11:29:11.972Z,27.20
2018-09-20T11:30:38.007Z,27.26
2018-09-20T11:32:05.570Z,27.33
2018-09-20T11:33:33.102Z,27.34
2018-09-20T11:35:00.769Z,27.45
2018-09-20T11:36:28.366Z,27.53
2018-09-20T11:37:56.045Z,27.36
2018-09-20T11:39:23.683Z,27.27
2018-09-20T11:40:51.167Z,27.12
2018-09-20T11:42:19.852Z,26.87
2018-09-20T11:43:46.667Z,26.78
2018-09-20T11:45:13.428Z,26.77
2018-09-20T11:46:39.756Z,26.61
2018-09-20T11:48:07.160Z,26.52
2018-09-20T11:49:34.674Z,26.44
2018-09-20T11:51:01.287Z,26.22
2018-09-20T11:52:28.875Z,26.14
2018-09-20T11:53:57.534Z,26.33
2018-09-20T11:55:23.960Z,26.58
2018-09-20T11:56:52.594Z,26.79
2018-09-20T11:58:18.451Z,26.86
2018-09-20T11:59:46.001Z,26.88
2018-09-20T12:01:14.481Z,27.01
2018-09-20T12:02:42.109Z,27.22
2018-09-20T12:04:08.751Z,27.45
2018-09-20T12:05:36.340Z,27.67
2018-09-20T12:07:03.921Z,27.85
2018-09-20T12:08:31.428Z,27.98
2018-09-20T12:09:59.029Z,28.10
2018-09-20T12:11:26.728Z,28.13
2018-09-20T12:12:54.314Z,28.20
2018-09-20T12:14:23.078Z,28.24
2018-09-20T12:15:49.656Z,28.32
2018-09-20T12:17:18.223Z,28.41
2018-09-20T12:18:44.130Z,28.44
2018-09-20T12:20:12.746Z,28.30
2018-09-20T12:21:38.604Z,28.11
2018-09-20T12:23:06.091Z,27.99
2018-09-20T12:24:33.617Z,28.00
2018-09-20T12:26:01.320Z,27.92
2018-09-20T12:27:27.838Z,27.95
2018-09-20T12:28:55.190Z,27.96
2018-09-20T12:30:22.790Z,27.95
2018-09-20T12:31:50.873Z,27.96
2018-09-20T12:33:18.291Z,27.88
2018-09-20T12:34:44.695Z,27.76
2018-09-20T12:36:13.244Z,27.64
2018-09-20T12:37:39.600Z,27.56
2018-09-20T12:39:07.110Z,27.53
2018-09-20T12:40:34.639Z,27.45
2018-09-20T12:42:02.431Z,27.46
2018-09-20T12:43:31.117Z,27.38
2018-09-20T12:44:57.857Z,27.31
2018-09-20T12:46:25.987Z,27.26
2018-09-20T12:47:52.672Z,27.20
2018-09-20T12:49:20.409Z,27.13
2018-09-20T12:50:47.963Z,27.09
2018-09-20T12:52:16.712Z,27.04
2018-09-20T12:53:44.292Z,26.98
2018-09-20T12:55:11.460Z,26.94
2018-09-20T12:56:38.006Z,26.91
2018-09-20T12:58:06.072Z,26.88
2018-09-20T12:59:32.286Z,26.84
2018-09-20T13:01:00.061Z,26.84
2018-09-20T13:02:27.731Z,26.82
2018-09-20T13:03:55.428Z,26.76
2018-09-20T13:05:22.355Z,26.73
2018-09-20T13:06:50.007Z,26.72
2018-09-20T13:08:17.658Z,26.71
2018-09-20T13:09:45.179Z,26.70
2018-09-20T13:11:13.620Z,26.69
2018-09-20T13:12:40.135Z,26.70
2018-09-20T13:14:07.213Z,26.72
2018-09-20T13:15:35.849Z,26.68
2018-09-20T13:17:02.468Z,26.65
2018-09-20T13:18:29.743Z,26.64
2018-09-20T13:19:56.582Z,26.64
2018-09-20T13:21:25.235Z,26.61
2018-09-20T13:22:51.824Z,26.59
2018-09-20T13:24:19.385Z,26.58
2018-09-20T13:25:46.921Z,26.54
2018-09-20T13:27:15.588Z,26.55
2018-09-20T13:28:41.524Z,26.60
2018-09-20T13:30:10.105Z,26.67
2018-09-20T13:31:37.639Z,26.74
2018-09-20T13:33:05.332Z,26.82
2018-09-20T13:34:32.091Z,26.92
2018-09-20T13:35:59.785Z,27.00
2018-09-20T13:37:28.401Z,27.01
2018-09-20T13:38:54.943Z,27.02
2018-09-20T13:40:21.998Z,27.03
2018-09-20T13:41:49.487Z,27.06
2018-09-20T13:43:17.279Z,27.05
2018-09-20T13:44:44.077Z,27.07
2018-09-20T13:46:12.371Z,27.07
2018-09-20T13:47:39.920Z,27.03
2018-09-20T13:49:07.574Z,26.96
2018-09-20T13:50:34.103Z,26.91
2018-09-20T13:52:01.745Z,26.84
2018-09-20T13:53:30.383Z,26.78
2018-09-20T13:54:56.883Z,26.73
2018-09-20T13:56:25.730Z,26.67
2018-09-20T13:57:53.376Z,26.68
2018-09-20T13:59:21.002Z,26.69
2018-09-20T14:00:48.473Z,26.69
2018-09-20T14:02:15.032Z,26.71
2018-09-20T14:03:42.666Z,26.69
2018-09-20T14:05:09.676Z,26.70
2018-09-20T14:06:36.708Z,26.72
2018-09-20T14:08:04.332Z,26.75
2018-09-20T14:09:31.858Z,26.79
2018-09-20T14:10:59.370Z,26.81
2018-09-20T14:12:27.118Z,26.84
2018-09-20T14:13:54.830Z,26.82
2018-09-20T14:15:23.569Z,26.82
2018-09-20T14:16:50.245Z,26.80
2018-09-20T14:18:16.806Z,26.74
2018-09-20T14:19:43.115Z,26.68
2018-09-20T14:21:10.854Z,26.58
2018-09-20T14:22:38.215Z,26.50
2018-09-20T14:24:04.739Z,26.42
2018-09-20T14:25:32.095Z,26.31
2018-09-20T14:27:00.946Z,26.21
2018-09-20T14:28:27.100Z,26.20
2018-09-20T14:29:53.644Z,26.19
2018-09-20T14:31:21.500Z,26.19
2018-09-20T14:32:49.996Z,26.19
2018-09-20T14:34:17.690Z,26.22
2018-09-20T14:35:44.361Z,26.24
2018-09-20T14:37:11.923Z,26.25
2018-09-20T14:38:39.441Z,26.25
2018-09-20T14:40:08.117Z,26.24
2018-09-20T14:41:34.117Z,26.24
2018-09-20T14:43:01.781Z,26.25
2018-09-20T14:44:30.464Z,26.25
2018-09-20T14:45:56.966Z,26.24
2018-09-20T14:47:24.641Z,26.21
2018-09-20T14:48:52.301Z,26.18
2018-09-20T14:50:19.539Z,26.18
2018-09-20T14:51:48.175Z,26.11
2018-09-20T14:53:15.779Z,26.06
2018-09-20T14:54:42.203Z,26.00
2018-09-20T14:56:09.730Z,25.95
2018-09-20T14:57:37.090Z,25.92
2018-09-20T14:59:04.558Z,25.90
2018-09-20T15:00:32.015Z,25.89
2018-09-20T15:02:00.532Z,25.89
2018-09-20T15:03:27.113Z,25.90
2018-09-20T15:04:54.746Z,25.89
2018-09-20T15:06:21.612Z,25.88
2018-09-20T15:07:49.121Z,25.87
2018-09-20T15:09:17.586Z,25.87
2018-09-20T15:10:44.994Z,25.87
2018-09-20T15:12:12.485Z,25.87
2018-09-20T15:13:39.196Z,25.88
2018-09-20T15:15:06.763Z,25.90
2018-09-20T15:16:34.295Z,25.91
2018-09-20T15:18:01.963Z,25.92
2018-09-20T15:19:30.334Z,25.92
2018-09-20T15:20:56.996Z,25.93
2018-09-20T15:22:23.831Z,25.93
2018-09-20T15:23:51.492Z,25.93
2018-09-20T15:25:20.245Z,25.92
2018-09-20T15:26:46.777Z,25.91
2018-09-20T15:28:14.938Z,25.90
2018-09-20T15:29:40.987Z,25.89
2018-09-20T15:31:08.517Z,25.87
2018-09-20T15:32:35.864Z,25.84
2018-09-20T15:34:03.547Z,25.81
2018-09-20T15:35:32.187Z,25.79
2018-09-20T15:36:58.784Z,25.76
2018-09-20T15:38:26.326Z,25.73
2018-09-20T15:39:54.051Z,25.71
2018-09-20T15:41:31.236Z,25.69
2018-09-20T15:42:59.692Z,25.67
2018-09-20T15:44:25.218Z,25.66
2018-09-20T15:45:52.907Z,25.62
2018-09-20T15:47:20.903Z,25.61
2018-09-20T15:48:47.436Z,25.60
2018-09-20T15:50:16.022Z,25.59
2018-09-20T15:51:42.292Z,25.57
2018-09-20T15:53:10.468Z,25.57
2018-09-20T15:54:30.399Z,25.54
2018-09-20T15:56:03.940Z,25.53
2018-09-20T15:57:31.629Z,25.52
2018-09-20T15:58:59.262Z,25.50
2018-09-20T16:00:26.799Z,25.48
2018-09-20T16:01:54.367Z,25.47
2018-09-20T16:03:23.069Z,25.45
2018-09-20T16:04:49.478Z,25.43
2018-09-20T16:06:16.239Z,25.42
2018-09-20T16:07:43.779Z,25.40
2018-09-20T16:09:11.388Z,25.37
2018-09-20T16:10:38.856Z,25.35
2018-09-20T16:12:07.106Z,25.32
2018-09-20T16:13:34.866Z,25.29
2018-09-20T16:15:01.526Z,25.27
2018-09-20T16:16:29.099Z,25.24
2018-09-20T16:17:57.597Z,25.21
2018-09-20T16:19:24.123Z,25.18
2018-09-20T16:20:51.746Z,25.16
2018-09-20T16:22:19.410Z,25.14
2018-09-20T16:23:47.615Z,25.11
2018-09-20T16:25:14.037Z,25.08
2018-09-20T16:26:42.565Z,25.05
2018-09-20T16:28:09.050Z,25.02
2018-09-20T16:29:36.595Z,24.97
2018-09-20T16:31:04.144Z,24.94
2018-09-20T16:32:25.503Z,24.91
2018-09-20T16:33:59.152Z,24.89
2018-09-20T16:35:27.783Z,24.87
2018-09-20T16:36:54.323Z,24.84
2018-09-20T16:38:22.957Z,24.81
2018-09-20T16:39:49.433Z,24.79
2018-09-20T16:41:17.797Z,24.76
2018-09-20T16:42:45.302Z,24.74
2018-09-20T16:44:11.855Z,24.71
2018-09-20T16:45:40.354Z,24.67
2018-09-20T16:47:06.210Z,24.64
2018-09-20T16:48:34.822Z,24.61
2018-09-20T16:50:01.961Z,24.58
2018-09-20T16:51:28.377Z,24.55
2018-09-20T16:52:56.436Z,24.51
2018-09-20T16:54:22.884Z,24.47
2018-09-20T16:55:51.436Z,24.44
2018-09-20T16:57:18.032Z,24.41
2018-09-20T16:58:45.718Z,24.36
2018-09-20T17:00:14.363Z,24.33
2018-09-20T17:01:40.694Z,24.28
2018-09-20T17:03:08.205Z,24.24
2018-09-20T17:04:35.700Z,24.21
2018-09-20T17:06:02.850Z,24.17
2018-09-20T17:07:30.259Z,24.15
2018-09-20T17:08:58.005Z,24.11
2018-09-20T17:10:25.437Z,24.08
2018-09-20T17:11:52.462Z,24.05
2018-09-20T17:13:19.936Z,24.02
2018-09-20T17:14:47.560Z,23.97
2018-09-20T17:16:15.049Z,23.94
2018-09-20T17:17:42.953Z,23.91
2018-09-20T17:19:09.031Z,23.89
2018-09-20T17:20:36.501Z,23.85
2018-09-20T17:22:04.132Z,23.83
2018-09-20T17:23:30.818Z,23.80
2018-09-20T17:24:58.253Z,23.76
2018-09-20T17:26:27.059Z,23.74
2018-09-20T17:27:53.140Z,23.70
2018-09-20T17:29:21.749Z,23.67
2018-09-20T17:30:48.389Z,23.65
2018-09-20T17:32:16.931Z,23.62
2018-09-20T17:33:44.227Z,23.59
2018-09-20T17:35:10.395Z,23.57
2018-09-20T17:36:37.968Z,23.53
2018-09-20T17:38:05.484Z,23.50
2018-09-20T17:39:34.045Z,23.47
2018-09-20T17:41:00.700Z,23.44
2018-09-20T17:42:28.234Z,23.41
2018-09-20T17:43:56.390Z,23.38
2018-09-20T17:45:24.018Z,23.34
2018-09-20T17:46:50.480Z,23.30
2018-09-20T17:48:18.154Z,23.26
2018-09-20T17:49:46.563Z,23.22
2018-09-20T17:51:13.643Z,23.17
2018-09-20T17:52:40.152Z,23.12
2018-09-20T17:54:08.472Z,23.07
2018-09-20T17:55:34.900Z,23.02
2018-09-20T17:57:02.480Z,22.95
2018-09-20T17:58:30.599Z,22.91
2018-09-20T17:59:57.252Z,22.86
2018-09-20T18:01:23.959Z,22.81
2018-09-20T18:02:51.618Z,22.77
2018-09-20T18:04:17.080Z,22.73
2018-09-20T18:05:45.746Z,22.67
2018-09-20T18:07:13.311Z,22.62
2018-09-20T18:08:39.162Z,22.57
2018-09-20T18:10:06.532Z,22.53
2018-09-20T18:11:33.960Z,22.48
2018-09-20T18:13:01.627Z,22.44
2018-09-20T18:14:30.190Z,22.40
2018-09-20T18:15:57.581Z,22.34
2018-09-20T18:17:24.017Z,22.32
2018-09-20T18:18:52.800Z,22.28
2018-09-20T18:20:19.602Z,22.26
2018-09-20T18:21:47.044Z,22.21
2018-09-20T18:23:13.491Z,22.18
2018-09-20T18:24:43.668Z,22.15
2018-09-20T18:26:09.090Z,22.13
2018-09-20T18:27:36.418Z,22.10
2018-09-20T18:29:02.687Z,22.07
2018-09-20T18:30:30.345Z,22.04
2018-09-20T18:31:57.966Z,22.02
2018-09-20T18:33:26.460Z,22.00
2018-09-20T18:34:52.191Z,21.97
2018-09-20T18:36:20.454Z,21.96
2018-09-20T18:37:46.453Z,21.92
2018-09-20T18:39:13.974Z,21.89
2018-09-20T18:40:41.202Z,21.86
2018-09-20T18:42:09.563Z,21.86
2018-09-20T18:43:36.441Z,21.82
2018-09-20T18:45:03.922Z,21.80
2018-09-20T18:46:30.421Z,21.79
2018-09-20T18:47:57.935Z,21.78